Lanark, West Virginia
Current Conditions -  °F | °C
As of 4:51 PM on Monday 24 Nov 2014 (Local Time) from KBKW Reporting Station
Overcast Overcast  
Wind Chill: 64°   Ceiling: 7500
Heat Index: 64°   Visibility: 10mi
Dew Point: 37°   Wind: 12mph
Humidity: 37%   Direction: 230°SW
Pressure: 29.73"   Gusts: 28mph
Location:  37.83°N, 81.15°W
Report Text: KBKW 242151Z AUTO 23010G24KT 10SM OVC075 18/03 A2973 RMK AO2 PK WND 24032/2055 SLP046 T01780028
Loading
Personal Weather Stations






























Interactive Weather Map New forecast layout! Learn more

10-Day Weather Forecast

Advertisements
Track Severe Weather on mobile